Terminal Aerodrome Forecast
Issued by NWS Jackson, KY

Home | Current Version | Previous Version | Text Only | Print | Product List | Glossary Off
Versions: 1 2 3 4 5 6 7 8 9 10 11 12 13 14

000
FTUS43 KJKL 012300
TAFJKL
TAF
KJKL 012340Z 0200/0224 00000KT P6SM SCT050
     FM021100 00000KT 5SM BR FEW050
     FM021400 01003KT P6SM VCSH SCT060 BKN100=

USA.gov is the U.S. government's official web portal to all federal, state and local government web resources and services.